createdAt,value
2023-04-08T00:02:27.466Z,12.37
2023-04-08T00:05:14.755Z,12.77
2023-04-08T00:08:02.152Z,13.57
2023-04-08T00:10:49.787Z,14.70
2023-04-08T00:13:38.619Z,14.70
2023-04-08T00:16:26.032Z,14.93
2023-04-08T00:19:13.179Z,15.00
2023-04-08T00:22:00.570Z,14.60
2023-04-08T00:24:47.949Z,15.07
2023-04-08T00:27:35.627Z,14.73
2023-04-08T00:30:24.212Z,18.37
2023-04-08T00:33:11.782Z,14.97
2023-04-08T00:35:59.679Z,18.03
2023-04-08T00:38:47.015Z,20.37
2023-04-08T00:41:35.303Z,23.33
2023-04-08T00:44:22.912Z,18.33
2023-04-08T00:47:15.496Z,24.03
2023-04-08T00:50:03.041Z,22.70
2023-04-08T00:52:50.648Z,22.20
2023-04-08T00:55:37.903Z,24.27
2023-04-08T00:58:25.331Z,21.27
2023-04-08T01:01:20.638Z,25.20
2023-04-08T01:04:18.494Z,23.00
2023-04-08T01:07:16.018Z,23.40
2023-04-08T01:10:08.833Z,30.83
2023-04-08T01:12:58.242Z,30.40
2023-04-08T01:15:46.379Z,23.30
2023-04-08T01:18:37.596Z,28.23
2023-04-08T01:21:28.864Z,29.40
2023-04-08T01:24:21.310Z,30.37
2023-04-08T01:27:11.652Z,28.40
2023-04-08T01:30:00.532Z,30.17
2023-04-08T01:32:48.892Z,28.13
2023-04-08T01:35:37.350Z,30.57
2023-04-08T01:38:26.925Z,32.00
2023-04-08T01:41:14.511Z,32.33
2023-04-08T01:44:04.010Z,28.17
2023-04-08T01:46:52.261Z,30.03
2023-04-08T01:49:40.333Z,30.63
2023-04-08T01:52:29.915Z,28.20
2023-04-08T01:55:17.700Z,31.43
2023-04-08T01:58:08.377Z,32.27
2023-04-08T02:00:59.579Z,34.80
2023-04-08T02:03:48.620Z,34.57
2023-04-08T02:06:36.616Z,33.47
2023-04-08T02:09:23.791Z,34.90
2023-04-08T02:12:11.476Z,36.17
2023-04-08T02:14:58.826Z,37.27
2023-04-08T02:17:50.432Z,30.03
2023-04-08T02:20:44.267Z,37.13
2023-04-08T02:23:34.588Z,34.83
2023-04-08T02:26:23.424Z,34.67
2023-04-08T02:29:15.610Z,39.13
2023-04-08T02:32:05.140Z,39.43
2023-04-08T02:34:55.899Z,39.93
2023-04-08T02:37:43.461Z,36.47
2023-04-08T02:40:33.451Z,41.30
2023-04-08T02:43:21.277Z,42.90
2023-04-08T02:46:09.365Z,38.40
2023-04-08T02:48:57.023Z,35.57
2023-04-08T02:51:46.012Z,38.70
2023-04-08T02:54:33.391Z,40.33
2023-04-08T02:57:20.611Z,39.70
2023-04-08T03:00:09.401Z,36.27
2023-04-08T03:02:57.215Z,41.93
2023-04-08T03:05:44.804Z,39.40
2023-04-08T03:08:33.851Z,40.43
2023-04-08T03:11:21.451Z,38.87
2023-04-08T03:14:09.260Z,39.43
2023-04-08T03:16:56.879Z,39.77
2023-04-08T03:19:44.125Z,35.80
2023-04-08T03:22:31.552Z,38.63
2023-04-08T03:25:20.475Z,37.17
2023-04-08T03:28:07.668Z,44.67
2023-04-08T03:30:54.952Z,39.77
2023-04-08T03:33:42.556Z,34.43
2023-04-08T03:36:29.944Z,33.13
2023-04-08T03:39:17.303Z,41.37
2023-04-08T03:42:06.167Z,42.13
2023-04-08T03:44:53.639Z,38.23
2023-04-08T03:47:41.150Z,36.87
2023-04-08T03:50:28.580Z,41.27
2023-04-08T03:53:16.184Z,41.47
2023-04-08T03:56:04.553Z,44.83
2023-04-08T03:58:53.384Z,44.27
2023-04-08T04:01:41.966Z,42.87
2023-04-08T04:04:29.723Z,40.70
2023-04-08T04:07:16.882Z,44.40
2023-04-08T04:10:04.515Z,44.13
2023-04-08T04:12:52.022Z,39.50
2023-04-08T04:15:42.144Z,44.97
2023-04-08T04:18:29.538Z,39.47
2023-04-08T04:21:16.984Z,43.50
2023-04-08T04:24:04.324Z,46.80
2023-04-08T04:26:51.885Z,43.67
2023-04-08T04:29:39.553Z,44.23
2023-04-08T04:32:28.370Z,48.70
2023-04-08T04:35:15.500Z,42.00
2023-04-08T04:38:03.192Z,51.70
2023-04-08T04:40:50.530Z,43.07
2023-04-08T04:43:37.722Z,48.93
2023-04-08T04:46:25.253Z,49.60
2023-04-08T04:49:14.004Z,43.63
2023-04-08T04:52:01.476Z,45.03
2023-04-08T04:54:48.658Z,44.17
2023-04-08T04:57:36.181Z,45.30
2023-04-08T05:00:24.823Z,42.87
2023-04-08T05:03:12.038Z,43.53
2023-04-08T05:06:01.090Z,49.87
2023-04-08T05:08:48.556Z,45.37
2023-04-08T05:11:36.353Z,41.37
2023-04-08T05:14:23.909Z,50.93
2023-04-08T05:17:11.320Z,47.83
2023-04-08T05:19:58.768Z,50.17
2023-04-08T05:22:47.569Z,44.70
2023-04-08T05:25:34.894Z,39.67
2023-04-08T05:28:21.971Z,43.77
2023-04-08T05:31:09.247Z,51.43
2023-04-08T05:33:56.700Z,44.37
2023-04-08T05:36:44.117Z,51.47
2023-04-08T05:39:32.922Z,42.37
2023-04-08T05:42:20.197Z,52.53
2023-04-08T05:45:08.896Z,43.67
2023-04-08T05:47:56.060Z,46.97
2023-04-08T05:50:44.089Z,49.33
2023-04-08T05:53:31.676Z,45.67
2023-04-08T05:56:20.921Z,50.17
2023-04-08T05:59:08.233Z,50.03
2023-04-08T06:01:56.970Z,52.60
2023-04-08T06:04:44.643Z,47.00
2023-04-08T06:07:33.336Z,48.57
2023-04-08T06:10:20.775Z,51.10
2023-04-08T06:13:09.444Z,43.37
2023-04-08T06:15:56.907Z,49.33
2023-04-08T06:18:44.866Z,47.20
2023-04-08T06:21:32.191Z,45.60
2023-04-08T06:24:20.021Z,45.83
2023-04-08T06:27:07.756Z,44.93
2023-04-08T06:29:57.270Z,43.43
2023-04-08T06:32:47.257Z,49.83
2023-04-08T06:35:34.648Z,50.23
2023-04-08T06:38:22.013Z,42.53
2023-04-08T06:41:10.000Z,50.70
2023-04-08T06:43:58.302Z,44.50
2023-04-08T06:46:47.110Z,45.90
2023-04-08T06:49:34.267Z,46.40
2023-04-08T06:52:21.880Z,55.87
2023-04-08T06:55:09.884Z,47.30
2023-04-08T06:57:57.276Z,42.50
2023-04-08T07:00:44.772Z,42.07
2023-04-08T07:03:33.619Z,51.70
2023-04-08T07:06:21.277Z,45.07
2023-04-08T07:09:09.449Z,40.23
2023-04-08T07:11:58.556Z,43.83
2023-04-08T07:14:46.100Z,46.90
2023-04-08T07:17:33.965Z,43.10
2023-04-08T07:20:22.868Z,37.77
2023-04-08T07:23:10.290Z,37.27
2023-04-08T07:26:02.650Z,42.47
2023-04-08T07:28:50.819Z,39.27
2023-04-08T07:31:38.236Z,43.67
2023-04-08T07:34:25.659Z,39.33
2023-04-08T07:37:14.611Z,43.87
2023-04-08T07:40:01.741Z,40.60
2023-04-08T07:42:49.215Z,40.77
2023-04-08T07:45:36.649Z,40.93
2023-04-08T07:48:23.864Z,37.27
2023-04-08T07:51:11.806Z,41.33
2023-04-08T07:54:01.102Z,38.50
2023-04-08T07:56:48.259Z,39.33
2023-04-08T07:59:36.120Z,42.23
2023-04-08T08:02:23.706Z,44.10
2023-04-08T08:05:11.184Z,40.93
2023-04-08T08:07:58.161Z,42.13
2023-04-08T08:10:46.974Z,45.13
2023-04-08T08:13:34.737Z,38.23
2023-04-08T08:16:22.176Z,36.80
2023-04-08T08:19:09.768Z,40.80
2023-04-08T08:21:56.929Z,34.63
2023-04-08T08:24:44.288Z,38.17
2023-04-08T08:27:34.376Z,36.50
2023-04-08T08:30:22.342Z,38.57
2023-04-08T08:33:09.519Z,38.17
2023-04-08T08:35:58.079Z,38.43
2023-04-08T08:38:45.427Z,41.60
2023-04-08T08:41:36.469Z,37.43
2023-04-08T08:44:25.741Z,37.20
2023-04-08T08:47:13.186Z,36.67
2023-04-08T08:50:00.678Z,36.43
2023-04-08T08:52:51.116Z,33.90
2023-04-08T08:56:05.586Z,32.40
2023-04-08T08:58:47.327Z,38.13
2023-04-08T09:01:38.580Z,29.83
2023-04-08T09:04:26.921Z,35.63
2023-04-08T09:07:14.688Z,28.83
2023-04-08T09:10:01.924Z,33.80
2023-04-08T09:12:56.829Z,33.57
2023-04-08T09:16:02.757Z,29.50
2023-04-08T09:18:52.264Z,28.20
2023-04-08T09:21:41.208Z,32.23
2023-04-08T09:24:30.270Z,29.03
2023-04-08T09:27:17.721Z,32.33
2023-04-08T09:30:17.747Z,32.80
2023-04-08T09:33:07.328Z,29.03
2023-04-08T09:35:56.741Z,27.50
2023-04-08T09:38:44.273Z,30.23
2023-04-08T09:41:36.052Z,30.43
2023-04-08T09:44:24.697Z,29.80
2023-04-08T09:47:20.075Z,27.83
2023-04-08T09:50:09.417Z,27.93
2023-04-08T09:53:03.159Z,24.10
2023-04-08T09:55:54.192Z,30.80
2023-04-08T09:58:47.325Z,23.43
2023-04-08T10:01:47.135Z,23.10
2023-04-08T10:04:38.086Z,20.60
2023-04-08T10:07:25.537Z,16.77
2023-04-08T10:10:14.151Z,22.83
2023-04-08T10:13:02.245Z,21.67
2023-04-08T10:15:49.618Z,20.40
2023-04-08T10:18:38.242Z,19.83
2023-04-08T10:21:36.106Z,19.73
2023-04-08T10:24:25.652Z,23.90
2023-04-08T10:27:41.546Z,21.30
2023-04-08T10:30:45.692Z,22.37
2023-04-08T10:33:37.208Z,15.53
2023-04-08T10:36:26.257Z,17.90
2023-04-08T10:39:15.505Z,19.53
2023-04-08T10:42:04.216Z,17.70
2023-04-08T10:44:52.988Z,18.57
2023-04-08T10:47:39.981Z,18.07
2023-04-08T10:50:27.346Z,15.97
2023-04-08T10:53:14.828Z,15.47
2023-04-08T10:56:07.084Z,17.63
2023-04-08T10:58:57.232Z,20.80
2023-04-08T11:01:48.396Z,16.77
2023-04-08T11:04:43.233Z,16.73
2023-04-08T11:07:31.171Z,18.57
2023-04-08T11:10:18.512Z,19.07
2023-04-08T11:13:08.779Z,21.40
2023-04-08T11:15:56.370Z,20.57
2023-04-08T11:18:46.264Z,21.23
2023-04-08T11:21:36.285Z,22.30
2023-04-08T11:24:23.588Z,21.90
2023-04-08T11:27:11.033Z,18.37
2023-04-08T11:29:59.217Z,17.97
2023-04-08T11:32:46.732Z,18.60
2023-04-08T11:35:35.605Z,18.43
2023-04-08T11:38:24.381Z,18.90
2023-04-08T11:41:12.231Z,20.53
2023-04-08T11:43:59.464Z,19.87
2023-04-08T11:46:55.393Z,18.80
2023-04-08T11:49:46.443Z,19.88
2023-04-08T11:52:45.716Z,21.13
2023-04-08T11:55:34.322Z,20.70
2023-04-08T11:58:21.799Z,19.47
2023-04-08T12:01:09.309Z,19.23
2023-04-08T12:03:58.400Z,17.00
2023-04-08T12:06:47.130Z,17.35
2023-04-08T12:09:35.787Z,16.57
2023-04-08T12:12:23.209Z,12.40
2023-04-08T12:15:11.446Z,11.10
2023-04-08T12:17:58.546Z,11.52
2023-04-08T12:20:46.186Z,9.38
2023-04-08T12:23:33.790Z,9.65
2023-04-08T12:26:22.654Z,8.63
2023-04-08T12:29:11.760Z,9.57
2023-04-08T12:31:59.538Z,7.63
2023-04-08T12:34:46.581Z,7.72
2023-04-08T12:37:34.232Z,6.65
2023-04-08T12:40:21.379Z,6.72
2023-04-08T12:43:10.029Z,6.47
2023-04-08T12:45:57.620Z,6.82
2023-04-08T12:51:35.635Z,7.43
2023-04-08T12:54:22.720Z,7.20
2023-04-08T12:57:10.502Z,7.13
2023-04-08T12:59:59.295Z,9.40
2023-04-08T13:02:46.835Z,7.38
2023-04-08T13:05:43.296Z,8.07
2023-04-08T13:08:31.276Z,8.68
2023-04-08T13:11:18.803Z,7.47
2023-04-08T13:14:06.229Z,7.22
2023-04-08T13:16:55.028Z,7.88
2023-04-08T13:19:42.055Z,7.60
2023-04-08T13:22:29.523Z,8.95
2023-04-08T13:25:17.051Z,8.13
2023-04-08T13:28:04.568Z,8.23
2023-04-08T13:30:52.219Z,7.35
2023-04-08T13:33:40.806Z,8.27
2023-04-08T13:36:28.937Z,9.38
2023-04-08T13:39:16.363Z,9.23
2023-04-08T13:42:04.107Z,7.25
2023-04-08T13:44:51.417Z,8.20
2023-04-08T13:47:38.996Z,7.72
2023-04-08T13:50:27.935Z,9.60
2023-04-08T13:53:17.444Z,7.35
2023-04-08T13:56:05.397Z,6.88
2023-04-08T13:58:57.152Z,7.97
2023-04-08T14:01:45.208Z,8.07
2023-04-08T14:04:33.533Z,8.35
2023-04-08T14:07:22.348Z,8.45
2023-04-08T14:10:10.869Z,8.02
2023-04-08T14:12:58.164Z,8.20
2023-04-08T14:15:46.632Z,7.97
2023-04-08T14:18:34.064Z,7.55
2023-04-08T14:21:21.567Z,7.47
2023-04-08T14:24:10.375Z,7.18
2023-04-08T14:26:57.776Z,8.27
2023-04-08T14:29:45.010Z,7.53
2023-04-08T14:32:32.517Z,8.25
2023-04-08T14:35:19.947Z,8.45
2023-04-08T14:38:07.484Z,7.93
2023-04-08T14:40:56.335Z,7.28
2023-04-08T14:43:43.664Z,8.32
2023-04-08T14:46:31.638Z,7.18
2023-04-08T14:49:18.620Z,7.78
2023-04-08T14:52:06.195Z,8.60
2023-04-08T14:54:53.725Z,6.60
2023-04-08T14:57:42.539Z,8.27
2023-04-08T15:00:29.820Z,8.27
2023-04-08T15:03:18.013Z,7.93
2023-04-08T15:06:17.716Z,8.05
2023-04-08T15:09:05.939Z,7.40
2023-04-08T15:11:53.165Z,7.65
2023-04-08T15:14:41.982Z,7.28
2023-04-08T15:17:29.275Z,8.38
2023-04-08T15:20:18.505Z,7.43
2023-04-08T15:23:06.046Z,9.52
2023-04-08T15:25:53.340Z,7.38
2023-04-08T15:28:40.685Z,6.93
2023-04-08T15:31:29.407Z,7.57
2023-04-08T15:34:16.728Z,6.68
2023-04-08T15:37:04.333Z,6.67
2023-04-08T15:39:53.621Z,7.82
2023-04-08T15:42:40.949Z,7.50
2023-04-08T15:45:28.536Z,6.95
2023-04-08T15:48:17.105Z,8.13
2023-04-08T15:51:08.492Z,7.80
2023-04-08T15:53:55.521Z,8.38
2023-04-08T15:56:44.371Z,8.63
2023-04-08T15:59:32.166Z,9.32
2023-04-08T16:02:19.672Z,8.00
2023-04-08T16:05:09.160Z,7.47
2023-04-08T16:07:56.482Z,6.95
2023-04-08T16:10:44.224Z,7.38
2023-04-08T16:13:32.428Z,8.10
2023-04-08T16:16:19.665Z,8.93
2023-04-08T16:19:07.440Z,9.52
2023-04-08T16:21:56.568Z,10.60
2023-04-08T16:24:43.927Z,9.35
2023-04-08T16:27:31.312Z,8.40
2023-04-08T16:30:18.894Z,8.25
2023-04-08T16:33:06.255Z,8.30
2023-04-08T16:35:54.166Z,10.10
2023-04-08T16:38:42.539Z,9.68
2023-04-08T16:41:29.883Z,9.95
2023-04-08T16:44:17.371Z,11.75
2023-04-08T16:47:05.048Z,12.47
2023-04-08T16:49:52.859Z,13.67
2023-04-08T16:52:40.175Z,13.57
2023-04-08T16:55:29.011Z,14.43
2023-04-08T16:58:16.136Z,12.40
2023-04-08T17:01:08.542Z,15.90
2023-04-08T17:03:57.226Z,14.87
2023-04-08T17:06:44.485Z,20.77
2023-04-08T17:09:32.104Z,15.60
2023-04-08T17:12:21.069Z,19.17
2023-04-08T17:15:09.942Z,17.83
2023-04-08T17:17:57.396Z,18.70
2023-04-08T17:20:44.840Z,17.13
2023-04-08T17:23:31.970Z,19.37
2023-04-08T17:26:19.339Z,19.23
2023-04-08T17:29:07.872Z,17.70
2023-04-08T17:31:55.367Z,16.50
2023-04-08T17:34:42.866Z,18.53
2023-04-08T17:37:30.073Z,20.97
2023-04-08T17:40:17.984Z,20.60
2023-04-08T17:43:05.519Z,19.97
2023-04-08T17:45:54.363Z,19.80
2023-04-08T17:48:42.078Z,20.53
2023-04-08T17:51:30.198Z,20.80
2023-04-08T17:54:17.863Z,17.37
2023-04-08T17:57:05.365Z,21.73
2023-04-08T17:59:52.849Z,22.80
2023-04-08T18:02:42.174Z,19.97
2023-04-08T18:05:30.078Z,22.90
2023-04-08T18:08:17.338Z,20.73
2023-04-08T18:11:06.040Z,23.50
2023-04-08T18:13:53.555Z,18.73
2023-04-08T18:16:41.327Z,21.23
2023-04-08T18:19:29.963Z,22.33
2023-04-08T18:22:17.404Z,21.87
2023-04-08T18:25:05.239Z,22.80
2023-04-08T18:27:52.520Z,21.67
2023-04-08T18:30:40.239Z,18.43
2023-04-08T18:33:27.475Z,21.40
2023-04-08T18:36:17.385Z,20.80
2023-04-08T18:39:04.858Z,22.33
2023-04-08T18:41:52.221Z,20.17
2023-04-08T18:44:39.586Z,21.13
2023-04-08T18:47:27.068Z,21.43
2023-04-08T18:50:14.517Z,22.47
2023-04-08T18:53:03.304Z,26.53
2023-04-08T18:55:51.181Z,27.97
2023-04-08T18:58:38.526Z,28.53
2023-04-08T19:01:28.654Z,30.07
2023-04-08T19:04:16.665Z,27.10
2023-04-08T19:07:04.055Z,26.50
2023-04-08T19:09:57.566Z,25.10
2023-04-08T19:12:45.452Z,23.40
2023-04-08T19:15:33.271Z,21.40
2023-04-08T19:18:20.784Z,21.13
2023-04-08T19:21:08.256Z,25.23
2023-04-08T19:23:55.618Z,27.77
2023-04-08T19:26:44.588Z,25.70
2023-04-08T19:29:33.947Z,29.53
2023-04-08T19:32:21.694Z,26.13
2023-04-08T19:35:12.198Z,27.53
2023-04-08T19:37:59.826Z,22.50
2023-04-08T19:40:48.071Z,22.53
2023-04-08T19:43:36.914Z,21.77
2023-04-08T19:46:24.007Z,24.77
2023-04-08T19:49:11.480Z,23.40
2023-04-08T19:51:59.193Z,24.53
2023-04-08T19:54:50.219Z,23.63
2023-04-08T19:57:37.647Z,24.13
2023-04-08T20:00:29.481Z,24.20
2023-04-08T20:03:17.154Z,22.13
2023-04-08T20:06:05.605Z,25.83
2023-04-08T20:08:54.014Z,25.40
2023-04-08T20:11:42.067Z,26.83
2023-04-08T20:14:29.497Z,28.00
2023-04-08T20:17:20.775Z,29.20
2023-04-08T20:20:09.429Z,24.33
2023-04-08T20:22:56.897Z,26.83
2023-04-08T20:25:44.561Z,26.00
2023-04-08T20:28:31.892Z,30.53
2023-04-08T20:31:19.456Z,29.37
2023-04-08T20:34:08.477Z,26.93
2023-04-08T20:36:56.010Z,26.20
2023-04-08T20:39:43.376Z,27.17
2023-04-08T20:42:30.909Z,36.37
2023-04-08T20:45:18.318Z,34.70
2023-04-08T20:48:07.301Z,33.07
2023-04-08T20:50:56.173Z,36.40
2023-04-08T20:53:44.534Z,35.80
2023-04-08T20:56:32.158Z,47.20
2023-04-08T20:59:19.242Z,31.37
2023-04-08T21:02:07.783Z,30.23
2023-04-08T21:04:55.419Z,25.60
2023-04-08T21:07:45.013Z,25.77
2023-04-08T21:10:32.105Z,27.87
2023-04-08T21:13:19.474Z,24.30
2023-04-08T21:16:07.525Z,26.17
2023-04-08T21:18:54.781Z,29.13
2023-04-08T21:21:42.318Z,26.87
2023-04-08T21:24:31.302Z,26.90
2023-04-08T21:27:19.027Z,27.10
2023-04-08T21:30:07.323Z,28.60
2023-04-08T21:32:54.835Z,26.80
2023-04-08T21:35:42.308Z,27.80
2023-04-08T21:38:29.652Z,26.60
2023-04-08T21:41:18.536Z,24.67
2023-04-08T21:44:05.785Z,23.83
2023-04-08T21:46:54.065Z,25.77
2023-04-08T21:49:41.829Z,27.13
2023-04-08T21:52:28.902Z,25.30
2023-04-08T21:55:16.180Z,26.43
2023-04-08T21:58:04.973Z,24.07
2023-04-08T22:00:52.982Z,24.97
2023-04-08T22:03:40.119Z,27.47
2023-04-08T22:06:32.623Z,25.00
2023-04-08T22:09:20.412Z,25.27
2023-04-08T22:12:07.993Z,25.97
2023-04-08T22:14:56.995Z,22.67
2023-04-08T22:17:44.042Z,25.77
2023-04-08T22:20:31.844Z,21.53
2023-04-08T22:23:18.978Z,21.90
2023-04-08T22:26:06.362Z,22.17
2023-04-08T22:28:54.253Z,22.37
2023-04-08T22:31:43.292Z,22.27
2023-04-08T22:34:30.432Z,25.73
2023-04-08T22:37:17.898Z,23.77
2023-04-08T22:40:06.236Z,25.63
2023-04-08T22:42:53.640Z,26.23
2023-04-08T22:45:41.145Z,24.93
2023-04-08T22:48:29.518Z,27.97
2023-04-08T22:51:16.917Z,27.20
2023-04-08T22:54:04.365Z,24.37
2023-04-08T22:56:51.940Z,29.33
2023-04-08T22:59:39.403Z,24.63
2023-04-08T23:02:26.494Z,25.47
2023-04-08T23:05:15.454Z,24.33
2023-04-08T23:08:02.670Z,26.33
2023-04-08T23:10:49.880Z,25.43
2023-04-08T23:13:37.389Z,23.40
2023-04-08T23:16:25.203Z,25.43
2023-04-08T23:19:12.577Z,28.73
2023-04-08T23:22:01.304Z,28.40
2023-04-08T23:24:48.532Z,28.00
2023-04-08T23:27:36.157Z,29.87
2023-04-08T23:30:23.271Z,28.97
2023-04-08T23:33:10.835Z,27.57
2023-04-08T23:35:58.279Z,26.17
2023-04-08T23:38:47.271Z,27.77
2023-04-08T23:41:34.218Z,25.07
2023-04-08T23:44:21.557Z,26.73
2023-04-08T23:47:09.064Z,30.40
2023-04-08T23:49:56.541Z,25.83
2023-04-08T23:52:43.945Z,26.10
2023-04-08T23:55:32.926Z,25.63
2023-04-08T23:58:20.061Z,29.67
